createdAt,value
2023-01-20T00:01:13.630Z,7.82
2023-01-20T00:03:41.019Z,8.27
2023-01-20T00:06:08.639Z,8.13
2023-01-20T00:08:35.823Z,8.73
2023-01-20T00:11:04.548Z,8.40
2023-01-20T00:13:31.512Z,8.65
2023-01-20T00:16:01.633Z,8.45
2023-01-20T00:18:29.124Z,7.70
2023-01-20T00:20:55.835Z,8.45
2023-01-20T00:23:22.620Z,7.45
2023-01-20T00:25:49.308Z,8.05
2023-01-20T00:28:17.183Z,8.95
2023-01-20T00:30:43.982Z,8.90
2023-01-20T00:33:12.030Z,8.45
2023-01-20T00:35:38.709Z,9.10
2023-01-20T00:38:05.403Z,7.75
2023-01-20T00:40:32.130Z,8.65
2023-01-20T00:42:58.849Z,9.50
2023-01-20T00:45:25.516Z,8.43
2023-01-20T00:47:52.200Z,8.35
2023-01-20T00:50:20.300Z,8.80
2023-01-20T00:52:47.151Z,8.52
2023-01-20T00:55:14.143Z,8.33
2023-01-20T00:57:41.181Z,8.20
2023-01-20T01:00:09.142Z,8.10
2023-01-20T01:02:37.965Z,7.68
2023-01-20T01:05:05.342Z,8.68
2023-01-20T01:07:33.402Z,8.77
2023-01-20T01:10:00.049Z,8.20
2023-01-20T01:12:26.882Z,8.52
2023-01-20T01:14:53.556Z,8.93
2023-01-20T01:17:20.246Z,8.00
2023-01-20T01:19:46.952Z,8.73
2023-01-20T01:22:13.669Z,8.82
2023-01-20T01:24:43.284Z,8.82
2023-01-20T01:27:10.042Z,8.63
2023-01-20T01:29:36.812Z,7.88
2023-01-20T01:32:03.824Z,9.23
2023-01-20T01:34:30.530Z,7.57
2023-01-20T01:36:57.516Z,7.70
2023-01-20T01:39:24.564Z,8.60
2023-01-20T01:41:52.640Z,8.05
2023-01-20T01:44:19.381Z,8.60
2023-01-20T01:46:46.403Z,8.23
2023-01-20T01:49:17.616Z,7.85
2023-01-20T01:51:47.949Z,8.60
2023-01-20T01:54:18.546Z,9.07
2023-01-20T01:56:47.458Z,9.17
2023-01-20T01:59:17.321Z,8.90
2023-01-20T02:01:48.326Z,8.20
2023-01-20T02:04:16.861Z,9.85
2023-01-20T02:06:46.508Z,9.85
2023-01-20T02:09:13.972Z,9.50
2023-01-20T02:11:44.329Z,9.80
2023-01-20T02:14:11.496Z,9.27
2023-01-20T02:16:49.640Z,9.85
2023-01-20T02:19:44.025Z,9.63
2023-01-20T02:22:29.212Z,9.83
2023-01-20T02:25:20.835Z,9.95
2023-01-20T02:28:31.720Z,10.52
2023-01-20T02:31:25.337Z,9.57
2023-01-20T02:33:57.105Z,11.13
2023-01-20T02:36:29.394Z,11.10
2023-01-20T02:39:01.239Z,10.38
2023-01-20T02:41:37.315Z,11.05
2023-01-20T02:44:10.704Z,11.43
2023-01-20T02:46:43.173Z,10.18
2023-01-20T02:49:17.346Z,10.87
2023-01-20T02:51:50.334Z,10.60
2023-01-20T02:54:20.302Z,10.13
2023-01-20T02:56:48.048Z,11.52
2023-01-20T02:59:18.316Z,10.73
2023-01-20T03:01:50.537Z,11.47
2023-01-20T03:04:22.525Z,10.50
2023-01-20T03:06:52.455Z,11.13
2023-01-20T03:09:25.298Z,10.88
2023-01-20T03:11:56.751Z,11.30
2023-01-20T03:14:23.451Z,10.77
2023-01-20T03:16:50.369Z,11.45
2023-01-20T03:19:20.524Z,11.32
2023-01-20T03:21:48.298Z,10.43
2023-01-20T03:24:15.337Z,11.65
2023-01-20T03:26:42.089Z,10.03
2023-01-20T03:29:10.481Z,12.02
2023-01-20T03:31:41.281Z,12.02
2023-01-20T03:34:12.441Z,11.38
2023-01-20T03:36:42.525Z,10.05
2023-01-20T03:39:09.421Z,9.93
2023-01-20T03:41:45.568Z,10.35
2023-01-20T03:44:19.365Z,10.75
2023-01-20T03:46:50.620Z,9.13
2023-01-20T03:49:22.944Z,10.13
2023-01-20T03:51:59.698Z,9.80
2023-01-20T03:54:31.063Z,9.82
2023-01-20T03:57:02.004Z,8.90
2023-01-20T03:59:29.092Z,9.52
2023-01-20T04:01:56.170Z,9.38
2023-01-20T04:04:23.037Z,9.50
2023-01-20T04:06:51.026Z,9.50
2023-01-20T04:09:24.542Z,9.38
2023-01-20T04:11:51.413Z,8.98
2023-01-20T04:14:18.331Z,9.93
2023-01-20T04:16:51.007Z,9.00
2023-01-20T04:19:17.841Z,10.05
2023-01-20T04:21:48.151Z,9.30
2023-01-20T04:24:21.532Z,8.85
2023-01-20T04:26:49.568Z,8.85
2023-01-20T04:29:16.225Z,9.57
2023-01-20T04:31:42.999Z,9.55
2023-01-20T04:34:13.320Z,10.32
2023-01-20T04:36:39.972Z,11.13
2023-01-20T04:39:06.724Z,10.85
2023-01-20T04:41:33.741Z,10.93
2023-01-20T04:44:01.850Z,9.75
2023-01-20T04:46:28.604Z,10.30
2023-01-20T04:48:55.308Z,9.60
2023-01-20T04:51:22.000Z,11.27
2023-01-20T04:53:48.739Z,10.43
2023-01-20T04:56:16.117Z,10.50
2023-01-20T04:58:43.381Z,10.07
2023-01-20T05:01:11.603Z,9.90
2023-01-20T05:03:38.328Z,10.80
2023-01-20T05:06:05.535Z,9.43
2023-01-20T05:08:32.438Z,10.27
2023-01-20T05:10:59.139Z,8.98
2023-01-20T05:13:25.830Z,9.30
2023-01-20T05:15:52.565Z,9.20
2023-01-20T05:18:20.638Z,10.73
2023-01-20T05:20:47.870Z,9.95
2023-01-20T05:23:14.837Z,9.80
2023-01-20T05:25:41.703Z,11.07
2023-01-20T05:28:08.772Z,9.98
2023-01-20T05:30:35.461Z,10.43
2023-01-20T05:33:02.155Z,10.63
2023-01-20T05:35:30.223Z,11.10
2023-01-20T05:37:56.901Z,11.95
2023-01-20T05:40:23.581Z,11.40
2023-01-20T05:42:50.303Z,12.03
2023-01-20T05:45:17.567Z,12.55
2023-01-20T05:47:44.381Z,11.02
2023-01-20T05:50:11.796Z,11.82
2023-01-20T05:52:39.836Z,11.07
2023-01-20T05:55:06.874Z,12.00
2023-01-20T05:57:33.531Z,11.30
2023-01-20T06:00:00.212Z,11.30
2023-01-20T06:02:29.668Z,12.07
2023-01-20T06:04:56.364Z,11.95
2023-01-20T06:07:23.093Z,10.70
2023-01-20T06:09:51.299Z,11.20
2023-01-20T06:12:18.088Z,10.73
2023-01-20T06:14:44.759Z,11.00
2023-01-20T06:17:11.435Z,10.30
2023-01-20T06:19:38.243Z,10.00
2023-01-20T06:22:06.977Z,11.35
2023-01-20T06:24:33.709Z,11.07
2023-01-20T06:27:01.739Z,9.93
2023-01-20T06:29:28.410Z,9.98
2023-01-20T06:31:55.185Z,11.17
2023-01-20T06:34:21.897Z,11.52
2023-01-20T06:36:48.581Z,9.88
2023-01-20T06:39:15.412Z,10.05
2023-01-20T06:41:42.149Z,11.40
2023-01-20T06:44:10.221Z,11.13
2023-01-20T06:46:36.969Z,11.32
2023-01-20T06:49:03.770Z,11.90
2023-01-20T06:51:31.038Z,11.75
2023-01-20T06:53:57.823Z,13.82
2023-01-20T06:56:24.641Z,12.50
2023-01-20T06:58:51.512Z,11.85
2023-01-20T07:01:22.921Z,12.98
2023-01-20T07:03:49.862Z,12.75
2023-01-20T07:06:19.630Z,11.80
2023-01-20T07:08:46.385Z,11.93
2023-01-20T07:11:13.364Z,12.40
2023-01-20T07:13:40.132Z,12.80
2023-01-20T07:16:10.199Z,12.52
2023-01-20T07:18:39.619Z,12.48
2023-01-20T07:21:06.659Z,12.00
2023-01-20T07:23:33.375Z,12.52
2023-01-20T07:26:01.560Z,12.07
2023-01-20T07:28:28.654Z,10.82
2023-01-20T07:30:55.342Z,12.65
2023-01-20T07:33:22.577Z,11.60
2023-01-20T07:35:53.915Z,12.60
2023-01-20T07:38:20.641Z,11.38
2023-01-20T07:40:47.433Z,10.82
2023-01-20T07:43:14.134Z,10.90
2023-01-20T07:45:40.929Z,11.57
2023-01-20T07:48:07.860Z,11.70
2023-01-20T07:50:34.668Z,11.90
2023-01-20T07:53:02.790Z,11.77
2023-01-20T07:55:29.550Z,10.65
2023-01-20T07:57:56.315Z,11.47
2023-01-20T08:00:23.245Z,11.63
2023-01-20T08:02:50.197Z,10.90
2023-01-20T08:05:17.235Z,11.88
2023-01-20T08:07:44.233Z,12.02
2023-01-20T08:10:12.338Z,11.73
2023-01-20T08:12:38.998Z,14.35
2023-01-20T08:15:07.030Z,12.60
2023-01-20T08:17:33.746Z,13.93
2023-01-20T08:20:00.458Z,13.95
2023-01-20T08:22:27.189Z,14.13
2023-01-20T08:24:53.877Z,14.63
2023-01-20T08:27:21.978Z,14.43
2023-01-20T08:29:48.653Z,14.70
2023-01-20T08:32:15.412Z,15.35
2023-01-20T08:34:42.126Z,15.53
2023-01-20T08:37:08.798Z,15.35
2023-01-20T08:39:35.498Z,15.40
2023-01-20T08:42:02.195Z,14.57
2023-01-20T08:44:30.287Z,13.98
2023-01-20T08:46:56.944Z,15.53
2023-01-20T08:49:23.753Z,15.45
2023-01-20T08:51:50.922Z,14.32
2023-01-20T08:54:17.598Z,15.05
2023-01-20T08:56:44.394Z,14.20
2023-01-20T08:59:11.295Z,14.63
2023-01-20T09:01:39.517Z,13.00
2023-01-20T09:04:07.401Z,12.98
2023-01-20T09:06:39.782Z,13.85
2023-01-20T09:09:06.465Z,13.63
2023-01-20T09:11:33.203Z,14.30
2023-01-20T09:13:59.919Z,13.65
2023-01-20T09:16:26.648Z,13.73
2023-01-20T09:18:54.694Z,17.50
2023-01-20T09:21:21.548Z,19.63
2023-01-20T09:23:48.308Z,15.80
2023-01-20T09:26:29.598Z,12.88
2023-01-20T09:29:00.302Z,13.98
2023-01-20T09:31:27.182Z,13.52
2023-01-20T09:33:55.321Z,12.73
2023-01-20T09:36:21.973Z,13.23
2023-01-20T09:38:48.651Z,11.95
2023-01-20T09:41:18.276Z,12.05
2023-01-20T09:43:51.170Z,12.90
2023-01-20T09:46:25.333Z,13.18
2023-01-20T09:48:59.673Z,12.77
2023-01-20T09:51:33.536Z,11.73
2023-01-20T09:54:04.068Z,11.88
2023-01-20T09:56:34.891Z,11.27
2023-01-20T09:59:06.976Z,10.38
2023-01-20T10:01:39.306Z,11.60
2023-01-20T10:04:13.525Z,11.50
2023-01-20T10:06:44.072Z,11.27
2023-01-20T10:09:18.744Z,11.07
2023-01-20T10:11:46.929Z,10.80
2023-01-20T10:14:18.332Z,11.60
2023-01-20T10:16:51.425Z,11.63
2023-01-20T10:19:23.546Z,11.18
2023-01-20T10:21:54.326Z,11.32
2023-01-20T10:24:28.363Z,11.05
2023-01-20T10:27:01.030Z,10.90
2023-01-20T10:29:34.783Z,11.90
2023-01-20T10:32:03.516Z,10.23
2023-01-20T10:34:38.405Z,12.23
2023-01-20T10:37:07.220Z,10.88
2023-01-20T10:39:42.614Z,11.83
2023-01-20T10:42:12.305Z,11.75
2023-01-20T10:44:39.634Z,11.13
2023-01-20T10:47:21.064Z,10.63
2023-01-20T10:50:19.970Z,9.73
2023-01-20T10:53:03.533Z,10.83
2023-01-20T10:55:38.199Z,14.20
2023-01-20T10:58:14.591Z,12.07
2023-01-20T11:00:42.460Z,12.93
2023-01-20T11:03:15.624Z,12.88
2023-01-20T11:05:45.337Z,17.73
2023-01-20T11:08:16.294Z,19.63
2023-01-20T11:10:43.628Z,11.18
2023-01-20T11:13:11.347Z,9.30
2023-01-20T11:15:41.607Z,9.40
2023-01-20T11:18:28.764Z,10.17
2023-01-20T11:21:00.274Z,9.77
2023-01-20T11:23:37.282Z,9.68
2023-01-20T11:26:06.415Z,9.68
2023-01-20T11:28:44.633Z,10.70
2023-01-20T11:31:11.822Z,10.37
2023-01-20T11:33:38.722Z,10.65
2023-01-20T11:36:16.536Z,11.00
2023-01-20T11:38:45.178Z,10.32
2023-01-20T11:41:18.690Z,10.25
2023-01-20T11:43:45.467Z,11.03
2023-01-20T11:46:20.667Z,11.07
2023-01-20T11:48:47.382Z,11.75
2023-01-20T11:51:23.496Z,11.52
2023-01-20T11:53:50.642Z,11.80
2023-01-20T11:56:21.282Z,11.97
2023-01-20T11:58:53.760Z,11.15
2023-01-20T12:01:23.769Z,10.93
2023-01-20T12:04:14.466Z,11.32
2023-01-20T12:06:50.760Z,11.30
2023-01-20T12:09:19.824Z,12.13
2023-01-20T12:11:55.188Z,11.32
2023-01-20T12:14:25.229Z,10.85
2023-01-20T12:17:03.495Z,12.15
2023-01-20T12:19:37.286Z,11.15
2023-01-20T12:22:14.102Z,11.03
2023-01-20T12:24:50.776Z,10.82
2023-01-20T12:27:23.768Z,10.43
2023-01-20T12:29:53.731Z,10.80
2023-01-20T12:32:20.509Z,10.98
2023-01-20T12:34:47.162Z,10.03
2023-01-20T12:37:23.363Z,11.52
2023-01-20T12:40:11.720Z,11.38
2023-01-20T12:43:04.643Z,11.00
2023-01-20T12:45:51.220Z,10.43
2023-01-20T12:48:29.172Z,11.07
2023-01-20T12:51:17.198Z,12.73
2023-01-20T12:54:03.207Z,12.40
2023-01-20T12:56:39.937Z,12.10
2023-01-20T12:59:21.134Z,12.43
2023-01-20T13:01:59.830Z,11.23
2023-01-20T13:04:51.815Z,11.48
2023-01-20T13:07:39.836Z,11.18
2023-01-20T13:10:21.726Z,10.40
2023-01-20T13:12:54.339Z,11.75
2023-01-20T13:15:26.789Z,13.10
2023-01-20T13:18:12.560Z,12.88
2023-01-20T13:20:42.778Z,12.85
2023-01-20T13:23:13.170Z,12.65
2023-01-20T13:25:42.429Z,12.52
2023-01-20T13:28:16.028Z,12.07
2023-01-20T13:30:45.364Z,11.95
2023-01-20T13:33:18.021Z,12.38
2023-01-20T13:35:47.534Z,12.57
2023-01-20T13:38:20.465Z,11.70
2023-01-20T13:40:53.534Z,12.40
2023-01-20T13:43:56.523Z,11.95
2023-01-20T13:46:45.699Z,10.20
2023-01-20T13:49:44.310Z,10.90
2023-01-20T13:52:11.080Z,10.25
2023-01-20T13:54:42.443Z,10.63
2023-01-20T13:57:36.217Z,10.85
2023-01-20T14:00:14.469Z,10.13
2023-01-20T14:02:41.161Z,9.60
2023-01-20T14:05:30.272Z,9.52
2023-01-20T14:07:57.647Z,9.57
2023-01-20T14:10:24.886Z,9.73
2023-01-20T14:12:53.072Z,9.65
2023-01-20T14:15:38.804Z,9.35
2023-01-20T14:18:12.799Z,9.80
2023-01-20T14:20:39.521Z,9.60
2023-01-20T14:23:33.725Z,9.23
2023-01-20T14:26:03.189Z,9.85
2023-01-20T14:28:32.066Z,10.38
2023-01-20T14:31:18.598Z,9.27
2023-01-20T14:33:47.886Z,9.43
2023-01-20T14:36:16.903Z,9.32
2023-01-20T14:38:56.343Z,9.10
2023-01-20T14:41:30.276Z,9.18
2023-01-20T14:43:58.896Z,8.40
2023-01-20T14:46:27.063Z,8.37
2023-01-20T14:48:55.204Z,9.10
2023-01-20T14:51:22.660Z,9.35
2023-01-20T14:54:22.591Z,9.90
2023-01-20T14:56:49.343Z,8.77
2023-01-20T14:59:20.578Z,10.03
2023-01-20T15:01:52.312Z,11.10
2023-01-20T15:04:19.166Z,9.00
2023-01-20T15:06:51.885Z,8.82
2023-01-20T15:09:27.347Z,8.35
2023-01-20T15:12:27.467Z,9.73
2023-01-20T15:15:11.972Z,9.50
2023-01-20T15:17:57.034Z,10.00
2023-01-20T15:20:27.791Z,12.73
2023-01-20T15:22:54.518Z,10.38
2023-01-20T15:25:21.326Z,10.20
2023-01-20T15:27:52.772Z,10.48
2023-01-20T15:30:22.226Z,12.40
2023-01-20T15:32:49.375Z,16.08
2023-01-20T15:35:18.351Z,15.73
2023-01-20T15:37:45.128Z,13.63
2023-01-20T15:40:17.372Z,11.95
2023-01-20T15:42:44.434Z,11.52
2023-01-20T15:45:13.390Z,11.20
2023-01-20T15:47:41.977Z,11.18
2023-01-20T15:50:20.810Z,10.30
2023-01-20T15:52:48.028Z,10.65
2023-01-20T15:55:16.063Z,11.10
2023-01-20T15:57:43.449Z,12.18
2023-01-20T16:00:17.063Z,11.57
2023-01-20T16:02:45.315Z,11.37
2023-01-20T16:05:15.161Z,11.68
2023-01-20T16:07:43.165Z,10.75
2023-01-20T16:10:14.880Z,9.50
2023-01-20T16:12:41.668Z,10.25
2023-01-20T16:15:12.829Z,11.57
2023-01-20T16:17:39.549Z,10.40
2023-01-20T16:20:21.819Z,9.35
2023-01-20T16:22:48.771Z,9.90
2023-01-20T16:25:15.638Z,10.98
2023-01-20T16:27:42.539Z,10.13
2023-01-20T16:30:15.685Z,11.05
2023-01-20T16:32:42.689Z,10.63
2023-01-20T16:35:10.808Z,10.52
2023-01-20T16:37:37.494Z,10.18
2023-01-20T16:40:04.904Z,10.73
2023-01-20T16:42:33.525Z,10.65
2023-01-20T16:45:00.313Z,12.05
2023-01-20T16:47:27.002Z,15.05
2023-01-20T16:49:53.689Z,12.52
2023-01-20T16:52:21.774Z,11.43
2023-01-20T16:54:48.472Z,11.60
2023-01-20T16:57:15.163Z,11.65
2023-01-20T16:59:41.873Z,12.18
2023-01-20T17:02:09.295Z,13.95
2023-01-20T17:04:35.974Z,12.17
2023-01-20T17:07:02.699Z,12.70
2023-01-20T17:09:30.829Z,12.88
2023-01-20T17:11:57.471Z,12.73
2023-01-20T17:14:24.122Z,13.25
2023-01-20T17:16:50.842Z,14.57
2023-01-20T17:19:17.861Z,13.48
2023-01-20T17:21:44.768Z,13.13
2023-01-20T17:24:11.760Z,13.30
2023-01-20T17:26:39.844Z,13.20
2023-01-20T17:29:06.503Z,12.97
2023-01-20T17:31:33.365Z,12.93
2023-01-20T17:34:00.058Z,13.65
2023-01-20T17:36:26.796Z,13.70
2023-01-20T17:38:53.826Z,12.90
2023-01-20T17:41:20.631Z,12.03
2023-01-20T17:43:48.804Z,12.18
2023-01-20T17:46:17.488Z,12.38
2023-01-20T17:48:44.454Z,11.05
2023-01-20T17:51:13.056Z,12.82
2023-01-20T17:53:40.640Z,13.17
2023-01-20T17:56:12.819Z,13.18
2023-01-20T17:58:40.774Z,11.45
2023-01-20T18:01:14.823Z,11.65
2023-01-20T18:03:43.262Z,12.65
2023-01-20T18:06:11.802Z,13.13
2023-01-20T18:08:38.618Z,13.65
2023-01-20T18:11:06.921Z,14.23
2023-01-20T18:13:33.664Z,13.50
2023-01-20T18:16:03.262Z,13.82
2023-01-20T18:18:31.348Z,13.90
2023-01-20T18:21:07.617Z,17.00
2023-01-20T18:23:34.446Z,15.20
2023-01-20T18:26:01.102Z,15.55
2023-01-20T18:28:27.820Z,14.13
2023-01-20T18:30:59.601Z,14.83
2023-01-20T18:33:26.374Z,14.98
2023-01-20T18:35:55.004Z,14.38
2023-01-20T18:38:21.703Z,13.40
2023-01-20T18:40:48.344Z,13.38
2023-01-20T18:43:15.051Z,13.53
2023-01-20T18:45:41.749Z,14.10
2023-01-20T18:48:08.440Z,13.93
2023-01-20T18:50:35.121Z,12.48
2023-01-20T18:53:03.289Z,13.68
2023-01-20T18:55:30.129Z,13.43
2023-01-20T18:57:56.880Z,14.48
2023-01-20T19:00:23.626Z,14.45
2023-01-20T19:02:50.511Z,14.88
2023-01-20T19:05:17.319Z,14.75
2023-01-20T19:07:48.723Z,16.80
2023-01-20T19:10:17.944Z,16.85
2023-01-20T19:12:44.856Z,17.85
2023-01-20T19:15:11.575Z,17.95
2023-01-20T19:17:38.270Z,107.35
2023-01-20T19:20:05.956Z,105.80
2023-01-20T19:22:32.656Z,61.85
2023-01-20T19:24:59.329Z,43.05
2023-01-20T19:27:27.394Z,32.40
2023-01-20T19:29:54.183Z,28.02
2023-01-20T19:32:20.881Z,19.87
2023-01-20T19:34:47.611Z,17.30
2023-01-20T19:37:14.302Z,16.25
2023-01-20T19:39:41.010Z,15.15
2023-01-20T19:42:08.064Z,15.48
2023-01-20T19:44:36.125Z,12.77
2023-01-20T19:47:02.860Z,13.20
2023-01-20T19:49:29.831Z,13.30
2023-01-20T19:51:56.534Z,13.90
2023-01-20T19:54:23.308Z,13.80
2023-01-20T19:56:49.998Z,14.67
2023-01-20T19:59:16.667Z,14.88
2023-01-20T20:01:44.724Z,13.30
2023-01-20T20:04:12.316Z,13.35
2023-01-20T20:06:41.139Z,14.23
2023-01-20T20:09:10.856Z,14.00
2023-01-20T20:11:38.378Z,14.07
2023-01-20T20:14:07.077Z,13.60
2023-01-20T20:16:35.524Z,13.95
2023-01-20T20:19:04.411Z,13.35
2023-01-20T20:21:31.133Z,13.50
2023-01-20T20:23:59.593Z,13.52
2023-01-20T20:26:28.564Z,13.77
2023-01-20T20:28:55.620Z,13.05
2023-01-20T20:31:22.873Z,14.02
2023-01-20T20:33:49.630Z,14.17
2023-01-20T20:36:17.690Z,13.75
2023-01-20T20:38:50.318Z,36.40
2023-01-20T20:41:18.343Z,20.05
2023-01-20T20:43:45.142Z,21.02
2023-01-20T20:46:15.639Z,21.03
2023-01-20T20:48:42.398Z,30.50
2023-01-20T20:51:11.375Z,42.05
2023-01-20T20:53:39.539Z,26.80
2023-01-20T20:56:07.396Z,20.60
2023-01-20T20:58:34.263Z,23.40
2023-01-20T21:01:01.468Z,17.35
2023-01-20T21:03:28.351Z,16.25
2023-01-20T21:05:55.169Z,15.10
2023-01-20T21:08:21.825Z,12.48
2023-01-20T21:10:49.884Z,11.90
2023-01-20T21:13:16.552Z,11.38
2023-01-20T21:15:43.250Z,10.10
2023-01-20T21:18:10.055Z,10.95
2023-01-20T21:20:36.799Z,10.70
2023-01-20T21:23:03.512Z,12.47
2023-01-20T21:25:30.870Z,11.73
2023-01-20T21:27:59.024Z,13.23
2023-01-20T21:30:25.753Z,13.02
2023-01-20T21:32:52.461Z,11.13
2023-01-20T21:35:19.134Z,11.90
2023-01-20T21:37:47.559Z,10.75
2023-01-20T21:40:14.758Z,10.00
2023-01-20T21:42:41.664Z,11.05
2023-01-20T21:45:11.117Z,11.00
2023-01-20T21:47:37.825Z,11.70
2023-01-20T21:50:05.204Z,11.27
2023-01-20T21:52:32.079Z,11.80
2023-01-20T21:54:58.803Z,11.05
2023-01-20T21:57:25.780Z,11.35
2023-01-20T21:59:52.749Z,11.20
2023-01-20T22:02:21.021Z,10.73
2023-01-20T22:04:47.847Z,11.25
2023-01-20T22:07:15.186Z,10.70
2023-01-20T22:09:41.847Z,11.38
2023-01-20T22:12:09.189Z,11.40
2023-01-20T22:14:36.029Z,11.38
2023-01-20T22:17:02.766Z,10.95
2023-01-20T22:19:30.848Z,10.23
2023-01-20T22:21:57.641Z,10.93
2023-01-20T22:24:24.524Z,10.40
2023-01-20T22:26:51.805Z,10.52
2023-01-20T22:29:18.665Z,10.02
2023-01-20T22:31:46.467Z,9.88
2023-01-20T22:34:13.325Z,10.70
2023-01-20T22:36:41.366Z,10.37
2023-01-20T22:39:09.981Z,9.20
2023-01-20T22:41:36.692Z,11.63
2023-01-20T22:44:03.505Z,11.60
2023-01-20T22:46:30.526Z,10.25
2023-01-20T22:48:58.250Z,9.73
2023-01-20T22:51:26.644Z,10.75
2023-01-20T22:53:55.364Z,9.95
2023-01-20T22:56:23.976Z,10.50
2023-01-20T22:58:50.813Z,9.63
2023-01-20T23:01:19.313Z,10.63
2023-01-20T23:03:46.913Z,10.90
2023-01-20T23:06:13.681Z,10.02
2023-01-20T23:08:41.001Z,9.50
2023-01-20T23:11:10.987Z,10.38
2023-01-20T23:13:37.994Z,10.83
2023-01-20T23:16:06.573Z,10.15
2023-01-20T23:18:34.361Z,10.05
2023-01-20T23:21:01.195Z,11.30
2023-01-20T23:23:28.235Z,10.48
2023-01-20T23:26:00.860Z,10.20
2023-01-20T23:28:28.884Z,10.50
2023-01-20T23:30:59.931Z,9.18
2023-01-20T23:33:26.654Z,8.70
2023-01-20T23:35:53.355Z,9.38
2023-01-20T23:38:20.050Z,10.40
2023-01-20T23:40:48.034Z,10.02
2023-01-20T23:43:14.790Z,8.93
2023-01-20T23:45:43.027Z,10.63
2023-01-20T23:48:09.694Z,10.85
2023-01-20T23:50:36.369Z,10.33
2023-01-20T23:53:03.117Z,9.70
2023-01-20T23:55:29.787Z,10.93
2023-01-20T23:57:56.458Z,9.48
